Time;durP1;ratioP1;P1;durP2;ratioP2;P2;SDS_P1;SDS_P2;PMS_P1;PMS_P2;Temp;Humidity;BMP_temperature;BMP_pressure;BME280_temperature;BME280_humidity;BME280_pressure;Samples;Min_cycle;Max_cycle;Signal;HPM_P1;HPM_P2
2023/05/05 00:01:12;;;;;;;6.60;5.03;;;15.50;35.70;;;;;;5071380;28;20560;-51
2023/05/05 00:03:38;;;;;;;6.77;6.07;;;15.50;35.70;;;;;;5071364;28;20168;-51
2023/05/05 00:06:05;;;;;;;5.95;5.35;;;15.40;35.70;;;;;;5071552;28;20164;-51
2023/05/05 00:08:31;;;;;;;7.63;6.82;;;15.40;35.70;;;;;;5071492;28;20672;-51
2023/05/05 00:10:57;;;;;;;8.93;6.67;;;15.40;35.90;;;;;;5071477;28;20231;-51
2023/05/05 00:13:23;;;;;;;6.80;5.80;;;15.40;35.80;;;;;;5071134;28;20411;-51
2023/05/05 00:15:50;;;;;;;8.88;6.65;;;15.30;35.90;;;;;;5071479;28;20244;-51
2023/05/05 00:18:17;;;;;;;8.15;5.80;;;15.30;35.80;;;;;;5071432;28;20168;-51
2023/05/05 00:20:43;;;;;;;9.65;5.68;;;15.20;36.00;;;;;;5071478;28;20226;-51
2023/05/05 00:23:09;;;;;;;9.18;5.72;;;15.10;36.10;;;;;;5071098;28;20180;-52
2023/05/05 00:25:35;;;;;;;8.40;5.47;;;15.10;36.20;;;;;;5071278;28;20230;-51
2023/05/05 00:28:01;;;;;;;6.83;6.10;;;15.00;36.20;;;;;;5071571;28;20181;-51
2023/05/05 00:30:26;;;;;;;10.60;6.53;;;14.90;36.20;;;;;;5074748;28;20258;-51
2023/05/05 00:32:53;;;;;;;6.60;5.80;;;14.90;36.10;;;;;;5074624;28;20181;-51
2023/05/05 00:35:19;;;;;;;11.02;6.40;;;16.00;36.20;;;;;;5074870;28;20184;-51
2023/05/05 00:37:45;;;;;;;7.07;6.38;;;14.90;35.80;;;;;;5074787;28;20173;-51
2023/05/05 00:40:12;;;;;;;7.10;5.95;;;14.90;36.00;;;;;;5074812;28;20196;-51
2023/05/05 00:42:46;;;;;;;6.95;5.93;;;14.80;35.90;;;;;;5074373;28;20184;-51
2023/05/05 00:45:14;;;;;;;10.27;6.28;;;14.80;36.00;;;;;;5074943;28;20168;-51
2023/05/05 00:47:46;;;;;;;6.75;6.05;;;14.80;36.00;;;;;;5074595;28;20168;-51
2023/05/05 00:50:24;;;;;;;7.00;5.82;;;14.80;36.00;;;;;;5074403;28;20200;-52
2023/05/05 00:52:53;;;;;;;7.10;6.40;;;14.70;36.10;;;;;;5074226;28;20713;-51
2023/05/05 00:55:19;;;;;;;6.85;6.13;;;14.70;36.30;;;;;;5074659;28;20563;-51
2023/05/05 00:57:45;;;;;;;7.25;5.75;;;14.60;36.30;;;;;;5074423;28;20211;-51
2023/05/05 01:00:11;;;;;;;7.60;5.37;;;14.60;36.20;;;;;;5074222;28;20222;-51
2023/05/05 01:02:38;;;;;;;7.13;6.43;;;14.60;36.30;;;;;;5073998;28;20402;-52
2023/05/05 01:05:05;;;;;;;8.35;5.80;;;14.60;36.40;;;;;;5074528;28;20199;-51
2023/05/05 01:07:43;;;;;;;8.77;6.22;;;14.50;36.50;;;;;;5074120;28;20165;-51
2023/05/05 01:10:18;;;;;;;7.50;6.13;;;14.50;36.90;;;;;;5074065;28;20185;-51
2023/05/05 01:13:08;;;;;;;8.98;6.25;;;14.50;36.90;;;;;;5073935;28;20157;-51
2023/05/05 01:15:40;;;;;;;7.32;6.20;;;14.40;36.80;;;;;;5074209;28;20157;-51
2023/05/05 01:18:26;;;;;;;6.55;5.90;;;14.30;37.00;;;;;;5073990;28;20191;-51
2023/05/05 01:21:10;;;;;;;5.97;5.22;;;14.30;37.10;;;;;;5074002;28;20200;-51
2023/05/05 01:23:54;;;;;;;10.27;5.97;;;14.30;37.10;;;;;;5073689;28;20255;-51
2023/05/05 01:26:50;;;;;;;8.50;7.30;;;14.20;37.10;;;;;;5073785;28;20191;-51
2023/05/05 01:29:55;;;;;;;13.65;6.95;;;14.20;37.40;;;;;;5073702;28;20252;-51
2023/05/05 01:32:27;;;;;;;6.53;5.70;;;14.10;37.30;;;;;;5073393;28;20805;-51
2023/05/05 01:34:58;;;;;;;11.70;6.38;;;14.00;37.50;;;;;;5073834;28;20177;-51
2023/05/05 01:37:29;;;;;;;7.50;6.63;;;13.80;37.70;;;;;;5073709;28;20313;-51
2023/05/05 01:40:02;;;;;;;12.15;7.13;;;13.90;37.50;;;;;;5072714;28;20189;-51
2023/05/05 01:42:29;;;;;;;8.27;6.68;;;13.90;37.70;;;;;;5073368;28;20227;-51
2023/05/05 01:44:56;;;;;;;10.93;6.68;;;13.80;37.50;;;;;;5073459;28;20176;-51
2023/05/05 01:47:23;;;;;;;8.77;5.55;;;13.80;37.40;;;;;;5073620;28;20180;-51
2023/05/05 01:49:50;;;;;;;6.35;5.72;;;13.80;37.40;;;;;;5073369;28;20184;-51
2023/05/05 01:52:17;;;;;;;11.15;6.35;;;13.80;37.50;;;;;;5073145;28;20165;-51
2023/05/05 01:54:46;;;;;;;6.47;5.88;;;13.80;37.40;;;;;;5073310;28;20525;-51
2023/05/05 01:57:38;;;;;;;5.95;4.97;;;13.80;37.30;;;;;;5073275;28;20168;-51
2023/05/05 02:00:06;;;;;;;9.60;5.03;;;13.80;37.20;;;;;;5073135;28;20196;-51
2023/05/05 02:02:33;;;;;;;6.07;5.03;;;13.70;37.10;;;;;;5072816;28;20710;-51
2023/05/05 02:05:01;;;;;;;6.85;5.28;;;13.70;37.20;;;;;;5073129;28;20200;-51
2023/05/05 02:07:27;;;;;;;8.25;7.15;;;13.70;37.20;;;;;;5073101;28;20175;-51
2023/05/05 02:09:55;;;;;;;9.65;7.45;;;13.70;37.20;;;;;;5072844;28;20185;-51
2023/05/05 02:12:22;;;;;;;6.50;5.22;;;13.70;37.30;;;;;;5072670;28;20180;-51
2023/05/05 02:14:49;;;;;;;6.60;5.90;;;13.70;37.40;;;;;;5073194;28;20193;-51
2023/05/05 02:17:16;;;;;;;6.57;5.90;;;13.70;37.50;;;;;;5072857;28;20165;-51
2023/05/05 02:19:44;;;;;;;7.35;5.80;;;13.70;37.60;;;;;;5072655;28;20173;-51
2023/05/05 02:22:11;;;;;;;7.35;6.65;;;13.70;37.60;;;;;;5072526;28;20164;-51
2023/05/05 02:24:37;;;;;;;8.57;5.50;;;13.70;37.50;;;;;;5072613;28;20165;-51
2023/05/05 02:27:04;;;;;;;9.17;7.10;;;13.60;37.90;;;;;;5072732;28;20171;-52
2023/05/05 02:30:01;;;;;;;6.03;5.50;;;13.60;38.00;;;;;;5072737;28;20410;-51
2023/05/05 02:32:36;;;;;;;10.10;6.30;;;13.50;37.90;;;;;;5071971;28;20544;-51
2023/05/05 02:35:25;;;;;;;8.48;6.72;;;13.50;37.70;;;;;;5072570;28;20200;-51
2023/05/05 02:37:58;;;;;;;7.88;5.75;;;13.60;37.70;;;;;;5072558;28;20202;-51
2023/05/05 02:40:27;;;;;;;7.88;5.90;;;13.60;37.50;;;;;;5072335;28;20196;-51
2023/05/05 02:42:56;;;;;;;8.63;6.72;;;13.60;37.50;;;;;;5072248;28;20172;-51
2023/05/05 02:45:22;;;;;;;7.07;5.72;;;13.60;37.50;;;;;;5072240;28;20657;-51
2023/05/05 02:47:48;;;;;;;6.57;5.97;;;13.60;37.50;;;;;;5072377;28;20191;-51
2023/05/05 02:50:14;;;;;;;8.37;5.93;;;13.50;37.80;;;;;;5072207;28;20653;-51
2023/05/05 02:52:40;;;;;;;9.00;6.68;;;13.50;38.20;;;;;;5071898;28;20166;-51
2023/05/05 02:55:07;;;;;;;9.10;7.22;;;13.40;38.50;;;;;;5072266;28;20172;-51
2023/05/05 02:58:05;;;;;;;6.75;5.50;;;13.30;38.70;;;;;;5072287;28;20176;-51
2023/05/05 03:00:42;;;;;;;7.50;6.25;;;13.30;38.90;;;;;;5072067;28;20291;-51
2023/05/05 03:03:45;;;;;;;8.02;6.20;;;13.20;38.70;;;;;;5071958;28;20259;-52
2023/05/05 03:06:17;;;;;;;8.00;6.88;;;13.20;38.60;;;;;;5070641;28;20192;-51
2023/05/05 03:08:55;;;;;;;13.25;7.43;;;13.30;38.30;;;;;;5072123;28;20199;-51
2023/05/05 03:11:55;;;;;;;9.68;6.47;;;13.30;38.10;;;;;;5071995;28;20199;-51
2023/05/05 03:14:22;;;;;;;7.03;6.22;;;13.30;38.00;;;;;;5072039;28;20652;-51
2023/05/05 03:16:48;;;;;;;8.70;6.50;;;13.30;38.00;;;;;;5071858;28;20664;-50
2023/05/05 03:19:17;;;;;;;8.45;6.72;;;13.30;38.10;;;;;;5072030;28;20263;-50
2023/05/05 03:21:43;;;;;;;9.25;6.95;;;13.30;38.10;;;;;;5071639;28;20215;-50
2023/05/05 03:24:16;;;;;;;7.53;6.70;;;13.30;38.50;;;;;;5071904;28;20648;-53
2023/05/05 03:26:44;;;;;;;7.50;6.70;;;13.30;38.60;;;;;;5071979;28;20172;-52
2023/05/05 03:29:10;;;;;;;8.43;6.72;;;13.30;38.60;;;;;;5071875;28;20171;-50
2023/05/05 03:31:35;;;;;;;7.87;7.17;;;13.20;38.80;;;;;;5071585;28;20212;-50
2023/05/05 03:34:01;;;;;;;7.60;5.63;;;13.20;38.60;;;;;;5071704;28;20410;-52
2023/05/05 03:36:28;;;;;;;7.63;6.47;;;13.20;39.00;;;;;;5071760;28;20173;-52
2023/05/05 03:38:53;;;;;;;7.95;6.35;;;13.20;38.90;;;;;;5071870;28;20176;-49
2023/05/05 03:41:20;;;;;;;10.93;6.50;;;13.20;38.80;;;;;;5071634;28;20196;-52
2023/05/05 03:43:46;;;;;;;13.10;6.65;;;13.20;38.60;;;;;;5071487;28;20165;-52
2023/05/05 03:46:12;;;;;;;9.00;6.30;;;13.20;38.60;;;;;;5071790;28;20173;-49
2023/05/05 03:48:37;;;;;;;7.53;5.23;;;13.20;38.40;;;;;;5071602;28;20176;-52
2023/05/05 03:51:03;;;;;;;9.73;6.47;;;13.20;38.50;;;;;;5071724;28;20191;-49
2023/05/05 03:53:29;;;;;;;9.03;6.30;;;13.20;38.30;;;;;;5071458;28;20640;-49
2023/05/05 03:55:55;;;;;;;9.30;7.27;;;13.20;38.30;;;;;;5071665;28;20168;-52
2023/05/05 03:58:20;;;;;;;11.83;7.03;;;13.20;38.80;;;;;;5071479;28;20944;-52
2023/05/05 04:00:46;;;;;;;11.30;7.50;;;13.10;39.00;;;;;;5071474;28;20222;-50
2023/05/05 04:03:12;;;;;;;8.40;7.50;;;13.10;38.80;;;;;;5071813;28;20162;-49
2023/05/05 04:05:38;;;;;;;10.43;7.23;;;13.00;38.80;;;;;;5075327;28;20196;-52
2023/05/05 04:08:04;;;;;;;9.00;7.57;;;13.00;38.70;;;;;;5075332;28;20173;-49
2023/05/05 04:10:29;;;;;;;12.43;7.15;;;13.10;38.80;;;;;;5075208;28;20192;-51
2023/05/05 04:12:55;;;;;;;12.17;6.70;;;13.10;38.70;;;;;;5074997;28;20179;-52
2023/05/05 04:15:21;;;;;;;10.10;6.43;;;13.10;39.30;;;;;;5075093;28;20524;-50
2023/05/05 04:17:46;;;;;;;10.40;6.60;;;13.10;39.30;;;;;;5075219;28;20173;-50
2023/05/05 04:20:12;;;;;;;13.20;7.43;;;13.00;39.10;;;;;;5074957;28;20257;-52
2023/05/05 04:22:38;;;;;;;16.13;6.80;;;13.00;39.00;;;;;;5074771;28;20537;-49
2023/05/05 04:25:05;;;;;;;23.87;7.73;;;13.10;39.10;;;;;;5073744;28;20422;-51
2023/05/05 04:27:31;;;;;;;24.75;8.90;;;13.10;39.10;;;;;;5074925;28;20493;-52
2023/05/05 04:29:57;;;;;;;20.13;7.83;;;13.10;39.10;;;;;;5074816;28;20189;-49
2023/05/05 04:32:22;;;;;;;17.10;7.70;;;13.20;39.10;;;;;;5074594;28;20656;-52
2023/05/05 04:34:48;;;;;;;22.53;9.50;;;13.20;39.10;;;;;;5074811;28;20395;-52
2023/05/05 04:37:14;;;;;;;14.53;8.23;;;13.20;39.10;;;;;;5073572;28;20643;-52
2023/05/05 04:39:40;;;;;;;13.68;8.00;;;13.30;39.50;;;;;;5074686;28;20428;-51
2023/05/05 04:42:07;;;;;;;20.07;8.30;;;13.20;39.70;;;;;;5074250;28;20204;-52
2023/05/05 04:44:33;;;;;;;15.32;7.88;;;13.20;39.80;;;;;;5074749;28;20176;-50
2023/05/05 04:47:02;;;;;;;13.20;8.60;;;13.30;39.80;;;;;;5074648;28;20200;-51
2023/05/05 04:49:30;;;;;;;14.90;7.65;;;13.40;39.60;;;;;;5074484;28;20161;-52
2023/05/05 04:51:56;;;;;;;12.45;8.68;;;13.50;39.60;;;;;;5074271;28;20257;-49
2023/05/05 04:54:22;;;;;;;14.88;8.85;;;13.50;39.60;;;;;;5074457;28;20165;-52
2023/05/05 04:56:48;;;;;;;15.63;8.00;;;13.60;39.80;;;;;;5074392;28;20187;-50
2023/05/05 04:59:14;;;;;;;14.83;9.17;;;13.60;39.70;;;;;;5074316;28;20169;-52
2023/05/05 05:01:41;;;;;;;22.58;9.25;;;13.70;39.80;;;;;;5074026;28;20208;-52
2023/05/05 05:04:07;;;;;;;18.58;8.32;;;13.80;39.80;;;;;;5074138;28;20649;-49
2023/05/05 05:06:33;;;;;;;17.60;8.98;;;13.90;40.10;;;;;;5074251;28;20188;-52
2023/05/05 05:08:59;;;;;;;13.53;8.70;;;14.00;39.90;;;;;;5074133;28;20203;-49
2023/05/05 05:11:26;;;;;;;19.07;7.50;;;14.00;39.90;;;;;;5073960;28;20488;-52
2023/05/05 05:13:52;;;;;;;12.52;8.27;;;14.10;39.90;;;;;;5073805;28;20164;-52
2023/05/05 05:16:18;;;;;;;14.10;8.68;;;14.10;39.70;;;;;;5074114;28;20173;-49
2023/05/05 05:18:43;;;;;;;9.95;6.50;;;14.20;39.50;;;;;;5074003;28;20169;-51
2023/05/05 05:21:09;;;;;;;8.13;6.10;;;14.30;39.30;;;;;;5073857;28;20200;-52
2023/05/05 05:23:35;;;;;;;13.17;7.83;;;14.30;39.20;;;;;;5073619;28;20169;-50
2023/05/05 05:26:01;;;;;;;17.43;7.40;;;14.40;39.10;;;;;;5073876;28;20203;-50
2023/05/05 05:28:27;;;;;;;12.90;7.97;;;14.50;39.20;;;;;;5074085;28;20196;-52
2023/05/05 05:30:53;;;;;;;10.23;7.43;;;14.50;39.10;;;;;;5073753;28;20231;-49
2023/05/05 05:33:18;;;;;;;12.93;10.03;;;14.60;39.10;;;;;;5073504;28;20411;-51
2023/05/05 05:35:44;;;;;;;10.00;6.43;;;14.70;39.20;;;;;;5073690;28;20456;-51
2023/05/05 05:38:10;;;;;;;9.53;7.10;;;14.80;39.20;;;;;;5073613;28;20164;-49
2023/05/05 05:40:36;;;;;;;12.60;8.30;;;14.90;39.30;;;;;;5073569;28;21007;-52
2023/05/05 05:43:02;;;;;;;10.93;6.73;;;15.10;39.10;;;;;;5073282;28;20304;-51
2023/05/05 05:45:27;;;;;;;29.40;8.37;;;15.30;38.80;;;;;;5073514;28;20410;-50
2023/05/05 05:47:53;;;;;;;11.37;7.30;;;15.50;38.20;;;;;;5073364;28;20161;-51
2023/05/05 05:50:20;;;;;;;10.55;7.60;;;15.50;38.10;;;;;;5073539;28;20783;-52
2023/05/05 05:52:46;;;;;;;12.15;7.13;;;15.70;38.10;;;;;;5073044;28;20256;-52
2023/05/05 05:55:11;;;;;;;9.13;7.07;;;15.80;38.00;;;;;;5073261;28;20298;-49
2023/05/05 05:57:37;;;;;;;13.10;7.23;;;15.90;37.80;;;;;;5073180;28;20585;-53
2023/05/05 06:00:03;;;;;;;9.43;7.13;;;16.00;37.60;;;;;;5073247;28;20193;-52
2023/05/05 06:02:29;;;;;;;11.60;8.00;;;16.10;37.20;;;;;;5072904;28;20167;-52
2023/05/05 06:04:55;;;;;;;10.73;8.27;;;16.10;36.60;;;;;;5072927;28;20176;-52
2023/05/05 06:07:21;;;;;;;16.60;6.93;;;16.20;36.40;;;;;;5072901;28;20405;-50
2023/05/05 06:09:46;;;;;;;7.93;6.30;;;16.30;36.50;;;;;;5072928;28;20172;-50
2023/05/05 06:12:12;;;;;;;11.40;7.20;;;16.40;36.40;;;;;;5072652;28;20168;-51
2023/05/05 06:14:38;;;;;;;11.30;8.00;;;16.60;36.50;;;;;;5073031;28;20200;-49
2023/05/05 06:17:03;;;;;;;9.20;7.27;;;16.80;36.00;;;;;;5073134;28;20722;-49
2023/05/05 06:19:29;;;;;;;7.60;6.87;;;17.00;35.50;;;;;;5072634;28;20179;-51
2023/05/05 06:21:55;;;;;;;11.10;7.63;;;17.10;35.60;;;;;;5072621;28;20201;-52
2023/05/05 06:24:20;;;;;;;8.47;7.10;;;17.30;35.60;;;;;;5072698;28;20677;-52
2023/05/05 06:26:47;;;;;;;10.90;6.37;;;17.50;34.80;;;;;;5072117;28;20164;-49
2023/05/05 06:29:12;;;;;;;11.52;6.47;;;17.60;34.60;;;;;;5072665;28;20252;-51
2023/05/05 06:31:38;;;;;;;8.30;6.83;;;17.70;34.10;;;;;;5072142;28;20689;-51
2023/05/05 06:34:04;;;;;;;7.20;5.50;;;17.80;33.80;;;;;;5072606;28;20178;-52
2023/05/05 06:36:30;;;;;;;11.93;6.87;;;17.90;34.00;;;;;;5072478;28;20525;-52
2023/05/05 06:38:56;;;;;;;7.90;6.38;;;18.00;33.40;;;;;;5072628;28;20180;-50
2023/05/05 06:41:22;;;;;;;6.93;6.23;;;18.10;33.10;;;;;;5072147;28;20222;-50
2023/05/05 06:43:48;;;;;;;7.53;5.60;;;18.20;33.50;;;;;;5072367;28;20172;-52
2023/05/05 06:46:14;;;;;;;8.80;6.87;;;18.30;33.60;;;;;;5072425;28;20634;-50
2023/05/05 06:48:39;;;;;;;7.43;5.70;;;18.50;33.20;;;;;;5072310;28;20502;-50
2023/05/05 06:51:05;;;;;;;7.27;5.97;;;18.70;33.00;;;;;;5072175;28;20450;-50
2023/05/05 06:53:31;;;;;;;12.73;6.73;;;18.80;32.80;;;;;;5071986;28;20175;-53
2023/05/05 06:55:56;;;;;;;11.20;7.10;;;19.00;32.50;;;;;;5072178;28;20172;-50
2023/05/05 06:58:22;;;;;;;7.27;5.80;;;19.10;32.50;;;;;;5072170;28;20188;-52
2023/05/05 07:00:48;;;;;;;7.93;4.70;;;19.30;31.80;;;;;;5072083;28;20607;-52
2023/05/05 07:03:14;;;;;;;9.13;5.50;;;19.50;32.40;;;;;;5071881;28;20165;-50
2023/05/05 07:05:39;;;;;;;7.70;5.85;;;19.60;31.80;;;;;;5072391;28;20177;-50
2023/05/05 07:08:07;;;;;;;8.87;5.77;;;19.80;31.50;;;;;;5072291;28;20241;-50
2023/05/05 07:10:33;;;;;;;7.68;5.90;;;19.90;31.20;;;;;;5071859;28;20200;-52
2023/05/05 07:12:59;;;;;;;8.70;4.80;;;20.10;31.50;;;;;;5071769;28;20214;-51
2023/05/05 07:15:25;;;;;;;7.70;5.43;;;20.30;30.90;;;;;;5072029;28;20222;-50
2023/05/05 07:17:50;;;;;;;6.40;5.37;;;20.40;31.00;;;;;;5071952;28;20181;-51
2023/05/05 07:20:16;;;;;;;10.23;5.10;;;20.60;30.70;;;;;;5072043;28;20447;-52
2023/05/05 07:22:42;;;;;;;6.47;5.27;;;20.80;30.50;;;;;;5071699;28;20165;-50
2023/05/05 07:25:08;;;;;;;4.90;4.43;;;21.00;28.70;;;;;;5071841;28;20442;-52
2023/05/05 07:27:36;;;;;;;4.40;4.00;;;21.10;29.40;;;;;;5071941;28;20247;-52
2023/05/05 07:30:02;;;;;;;8.07;4.75;;;21.20;29.50;;;;;;5071528;28;20949;-50
2023/05/05 07:32:27;;;;;;;7.38;4.57;;;21.40;28.30;;;;;;5071513;28;20172;-52
2023/05/05 07:34:53;;;;;;;5.70;3.87;;;21.50;28.30;;;;;;5071662;28;20552;-52
2023/05/05 07:37:19;;;;;;;8.33;4.43;;;21.70;28.90;;;;;;5071789;28;20168;-52
2023/05/05 07:39:46;;;;;;;6.40;5.57;;;21.80;27.30;;;;;;5074954;28;20165;-50
2023/05/05 07:42:12;;;;;;;4.90;4.15;;;21.90;27.70;;;;;;5075630;28;20615;-52
2023/05/05 07:44:38;;;;;;;4.10;3.70;;;22.10;27.10;;;;;;5075777;28;20218;-52
2023/05/05 07:47:03;;;;;;;5.07;4.57;;;22.20;27.40;;;;;;5075752;28;20168;-50
2023/05/05 07:49:29;;;;;;;7.57;4.80;;;22.40;27.00;;;;;;5075536;28;21126;-50
2023/05/05 07:51:55;;;;;;;6.23;4.60;;;22.50;27.50;;;;;;5075445;28;20172;-52
2023/05/05 07:54:21;;;;;;;8.50;4.17;;;22.70;27.10;;;;;;5075682;28;20425;-50
2023/05/05 07:56:47;;;;;;;5.73;4.20;;;22.80;25.60;;;;;;5075589;28;20414;-51
2023/05/05 07:59:12;;;;;;;6.00;4.10;;;22.90;25.20;;;;;;5075849;28;20172;-52
2023/05/05 08:01:38;;;;;;;6.13;4.27;;;23.00;24.90;;;;;;5075243;28;20685;-52
2023/05/05 08:04:04;;;;;;;7.00;4.80;;;23.10;25.50;;;;;;5075428;28;20169;-50
2023/05/05 08:06:30;;;;;;;6.13;4.60;;;23.30;25.30;;;;;;5075284;28;20173;-52
2023/05/05 08:08:59;;;;;;;4.63;4.23;;;23.40;25.00;;;;;;5075405;28;20821;-52
2023/05/05 08:11:25;;;;;;;6.40;4.45;;;23.70;26.20;;;;;;5075340;28;20487;-52
2023/05/05 08:13:50;;;;;;;5.88;4.53;;;23.90;24.90;;;;;;5075282;28;20176;-50
2023/05/05 08:16:17;;;;;;;10.53;4.37;;;24.00;25.50;;;;;;5075288;28;20268;-53
2023/05/05 08:18:43;;;;;;;6.73;4.50;;;24.20;25.00;;;;;;5075052;28;20430;-53
2023/05/05 08:21:10;;;;;;;7.07;4.13;;;24.30;23.40;;;;;;5074862;28;20993;-50
2023/05/05 08:23:36;;;;;;;4.73;3.90;;;24.20;23.10;;;;;;5074749;28;20899;-50
2023/05/05 08:26:05;;;;;;;3.53;2.87;;;24.10;24.50;;;;;;5075217;28;20418;-53
2023/05/05 08:28:35;;;;;;;4.07;3.67;;;24.30;25.20;;;;;;5074808;28;20399;-53
2023/05/05 08:31:02;;;;;;;4.70;3.60;;;24.50;24.90;;;;;;5074181;28;20966;-50
2023/05/05 08:33:28;;;;;;;5.27;3.97;;;24.70;23.80;;;;;;5073572;28;20725;-50
2023/05/05 08:35:54;;;;;;;4.07;3.67;;;24.90;23.80;;;;;;5073588;28;20409;-52
2023/05/05 08:38:19;;;;;;;4.70;3.63;;;25.00;23.80;;;;;;5073467;28;20267;-50
2023/05/05 08:40:45;;;;;;;5.80;3.50;;;25.10;22.90;;;;;;5073441;28;20204;-50
2023/05/05 08:43:11;;;;;;;7.60;3.90;;;25.20;22.80;;;;;;5073356;28;20172;-52
2023/05/05 08:45:40;;;;;;;4.37;3.80;;;25.30;21.90;;;;;;5073491;28;20766;-51
2023/05/05 08:48:07;;;;;;;9.20;4.23;;;25.50;22.30;;;;;;5073354;28;20548;-50
2023/05/05 08:50:38;;;;;;;4.87;3.97;;;25.70;21.90;;;;;;5072963;28;20419;-53
2023/05/05 08:53:15;;;;;;;8.80;3.57;;;25.80;21.80;;;;;;5073284;28;20460;-51
2023/05/05 08:55:49;;;;;;;8.63;4.93;;;26.00;23.40;;;;;;5073660;28;20399;-53
2023/05/05 08:58:17;;;;;;;4.90;4.00;;;26.10;21.90;;;;;;5073285;28;20407;-53
2023/05/05 09:00:44;;;;;;;4.10;3.67;;;26.10;21.00;;;;;;5073295;28;20458;-51
2023/05/05 09:03:10;;;;;;;4.73;4.10;;;26.10;22.50;;;;;;5072935;28;20406;-53
2023/05/05 09:05:37;;;;;;;6.50;3.90;;;26.20;20.80;;;;;;5073486;28;20410;-50
2023/05/05 09:08:06;;;;;;;5.50;3.00;;;26.30;20.90;;;;;;5073117;28;20403;-53
2023/05/05 09:10:34;;;;;;;5.60;3.50;;;26.50;21.20;;;;;;5073312;28;20427;-53
2023/05/05 09:13:00;;;;;;;6.10;3.80;;;26.70;20.40;;;;;;5072757;28;20410;-51
2023/05/05 09:15:27;;;;;;;6.43;4.33;;;26.80;20.30;;;;;;5073014;28;20452;-51
2023/05/05 09:17:57;;;;;;;4.80;3.60;;;26.90;19.90;;;;;;5073131;28;20913;-52
2023/05/05 09:20:23;;;;;;;5.40;2.93;;;26.90;19.50;;;;;;5072847;28;20520;-52
2023/05/05 09:22:49;;;;;;;3.57;3.27;;;27.00;20.00;;;;;;5072633;28;20494;-52
2023/05/05 09:25:17;;;;;;;5.20;3.40;;;27.00;18.60;;;;;;5072852;28;20548;-52
2023/05/05 09:27:48;;;;;;;5.33;2.90;;;27.10;18.80;;;;;;5073124;28;20175;-53
2023/05/05 09:30:24;;;;;;;6.03;3.30;;;27.20;18.50;;;;;;5023000;28;1423941;-52
2023/05/05 09:32:54;;;;;;;6.83;3.60;;;27.20;19.20;;;;;;5073647;28;20481;-52
2023/05/05 09:35:21;;;;;;;5.63;3.47;;;27.30;18.90;;;;;;5073806;28;20425;-51
2023/05/05 09:37:47;;;;;;;5.90;3.10;;;27.40;18.10;;;;;;5073660;28;20401;-54
2023/05/05 09:40:16;;;;;;;5.00;3.50;;;27.40;19.10;;;;;;5073391;28;20423;-52
2023/05/05 09:42:43;;;;;;;5.73;3.60;;;27.40;18.80;;;;;;5073331;28;20456;-51
2023/05/05 09:45:17;;;;;;;4.23;3.80;;;27.40;19.10;;;;;;5073421;28;20410;-51
2023/05/05 09:47:44;;;;;;;7.07;3.53;;;27.50;19.70;;;;;;5073417;28;20826;-50
2023/05/05 09:50:17;;;;;;;4.33;3.30;;;27.60;18.00;;;;;;5073613;28;20502;-53
2023/05/05 09:52:53;;;;;;;3.93;2.43;;;27.60;17.80;;;;;;5073234;28;20403;-53
2023/05/05 09:55:19;;;;;;;5.30;3.60;;;27.60;17.40;;;;;;5073282;28;20406;-52
2023/05/05 09:57:46;;;;;;;5.90;3.40;;;27.60;18.40;;;;;;5073438;28;20465;-51
2023/05/05 10:00:14;;;;;;;3.23;2.70;;;27.60;18.30;;;;;;5073272;28;20462;-53
2023/05/05 10:02:40;;;;;;;4.60;2.50;;;27.70;17.80;;;;;;5072173;28;20445;-51
2023/05/05 10:05:14;;;;;;;5.70;3.60;;;27.60;17.30;;;;;;5073170;28;20403;-53
2023/05/05 10:07:42;;;;;;;4.47;3.43;;;27.60;17.60;;;;;;5072957;28;20407;-53
2023/05/05 10:10:16;;;;;;;7.50;3.33;;;27.60;18.70;;;;;;5073209;28;20483;-50
2023/05/05 10:12:42;;;;;;;4.30;3.50;;;27.60;17.80;;;;;;5072921;28;20406;-53
2023/05/05 10:15:10;;;;;;;5.53;2.90;;;27.60;18.40;;;;;;5073012;28;20772;-50
2023/05/05 10:17:47;;;;;;;3.63;3.23;;;27.70;18.10;;;;;;5072703;28;20921;-53
2023/05/05 10:20:14;;;;;;;3.87;3.20;;;27.90;17.30;;;;;;5071470;28;20476;-51
2023/05/05 10:22:47;;;;;;;4.10;3.33;;;27.90;18.20;;;;;;5072832;28;20411;-51
2023/05/05 10:25:14;;;;;;;5.80;3.87;;;28.00;18.30;;;;;;5072978;28;20483;-53
2023/05/05 10:27:50;;;;;;;5.13;4.60;;;28.10;18.50;;;;;;5072683;28;20837;-52
2023/05/05 10:30:25;;;;;;;4.73;4.20;;;28.30;18.20;;;;;;5072689;28;20423;-51
2023/05/05 10:32:57;;;;;;;3.40;2.80;;;28.30;18.00;;;;;;5072534;28;20437;-53
2023/05/05 10:35:26;;;;;;;7.53;4.27;;;28.30;17.60;;;;;;5072723;28;20450;-53
2023/05/05 10:37:53;;;;;;;5.60;3.23;;;28.30;18.80;;;;;;5072486;28;20440;-51
2023/05/05 10:40:21;;;;;;;6.80;3.80;;;28.40;17.70;;;;;;5072193;28;20918;-53
2023/05/05 10:42:48;;;;;;;4.27;3.60;;;28.40;18.10;;;;;;5072230;28;20395;-53
2023/05/05 10:45:15;;;;;;;6.10;3.10;;;28.50;18.30;;;;;;5072576;28;20403;-51
2023/05/05 10:47:43;;;;;;;6.27;3.20;;;28.70;17.70;;;;;;5072316;28;20399;-51
2023/05/05 10:50:15;;;;;;;3.63;3.27;;;28.70;17.60;;;;;;5072184;28;20426;-53
2023/05/05 10:53:01;;;;;;;4.80;3.37;;;28.70;18.10;;;;;;5072334;28;20391;-51
2023/05/05 10:55:37;;;;;;;3.37;2.97;;;28.70;17.00;;;;;;5072441;28;20410;-51
2023/05/05 10:58:03;;;;;;;5.77;3.37;;;28.70;16.60;;;;;;5072286;28;21095;-51
2023/05/05 11:00:37;;;;;;;3.00;2.70;;;28.70;16.30;;;;;;5072014;28;20469;-53
2023/05/05 11:03:32;;;;;;;4.30;3.13;;;28.80;16.40;;;;;;5071937;28;20172;-51
2023/05/05 11:06:06;;;;;;;4.87;3.43;;;28.90;16.60;;;;;;5071476;28;20433;-53
2023/05/05 11:08:41;;;;;;;3.40;2.90;;;29.00;16.70;;;;;;5072072;28;20924;-51
2023/05/05 11:11:09;;;;;;;3.63;3.00;;;29.10;16.50;;;;;;5071993;28;20967;-51
2023/05/05 11:13:36;;;;;;;3.57;3.23;;;29.00;15.80;;;;;;5071620;28;20403;-54
2023/05/05 11:16:02;;;;;;;5.53;3.27;;;28.90;15.70;;;;;;5071933;28;20411;-53
2023/05/05 11:18:39;;;;;;;3.13;2.70;;;28.80;16.20;;;;;;5071882;28;20779;-50
2023/05/05 11:21:14;;;;;;;6.47;3.27;;;28.90;16.20;;;;;;5072057;28;20456;-53
2023/05/05 11:23:41;;;;;;;4.37;3.00;;;29.00;16.50;;;;;;5071766;28;20427;-51
2023/05/05 11:26:07;;;;;;;4.23;3.30;;;28.90;15.10;;;;;;5071878;28;20452;-51
2023/05/05 11:28:33;;;;;;;3.50;2.80;;;28.90;15.10;;;;;;5071882;28;20423;-54
2023/05/05 11:31:02;;;;;;;4.00;2.90;;;28.80;15.70;;;;;;5071547;28;20835;-53
2023/05/05 11:33:33;;;;;;;5.20;3.30;;;28.80;16.10;;;;;;5071346;28;20441;-53
2023/05/05 11:36:03;;;;;;;5.63;2.90;;;28.80;17.20;;;;;;5071787;28;20460;-53
2023/05/05 11:38:53;;;;;;;3.80;3.20;;;29.00;17.10;;;;;;5071728;28;20413;-53
2023/05/05 11:41:31;;;;;;;3.33;3.03;;;29.00;15.90;;;;;;5071871;28;20466;-53
2023/05/05 11:44:11;;;;;;;5.33;2.77;;;29.00;16.10;;;;;;5071554;28;20437;-52
2023/05/05 11:47:01;;;;;;;3.83;3.20;;;29.00;16.80;;;;;;5071944;28;20464;-53
2023/05/05 11:49:30;;;;;;;4.23;2.53;;;29.20;17.20;;;;;;5070916;28;20808;-53
2023/05/05 11:52:06;;;;;;;7.67;2.80;;;29.30;16.90;;;;;;5071384;28;20422;-53
2023/05/05 11:54:33;;;;;;;5.23;3.23;;;29.20;15.00;;;;;;5071930;28;20813;-53
2023/05/05 11:57:04;;;;;;;4.30;3.77;;;29.00;16.10;;;;;;5071558;28;20926;-53
2023/05/05 11:59:55;;;;;;;10.13;3.50;;;29.10;16.60;;;;;;5071405;28;20415;-53
2023/05/05 12:02:21;;;;;;;5.37;2.77;;;29.30;16.00;;;;;;5071249;28;20913;-53
2023/05/05 12:04:48;;;;;;;5.53;2.43;;;29.30;16.80;;;;;;5071762;28;20740;-50
2023/05/05 12:07:18;;;;;;;4.27;2.93;;;29.30;15.80;;;;;;5071443;28;20407;-53
2023/05/05 12:09:45;;;;;;;4.33;3.30;;;29.40;15.80;;;;;;5071705;28;20391;-54
2023/05/05 12:12:12;;;;;;;3.30;2.50;;;29.40;16.00;;;;;;5071120;28;20501;-53
2023/05/05 12:14:51;;;;;;;6.80;3.80;;;29.40;15.60;;;;;;5071712;28;20410;-53
2023/05/05 12:17:22;;;;;;;4.00;2.20;;;29.60;16.50;;;;;;5071361;28;20802;-53
2023/05/05 12:19:53;;;;;;;4.70;2.73;;;29.60;16.20;;;;;;5071624;28;20422;-50
2023/05/05 12:22:21;;;;;;;3.80;2.90;;;29.80;15.90;;;;;;5071086;28;21002;-53
2023/05/05 12:24:57;;;;;;;4.90;3.17;;;29.70;14.90;;;;;;5072708;28;20748;-54
2023/05/05 12:27:25;;;;;;;3.03;2.47;;;29.80;15.30;;;;;;5074950;28;20403;-53
2023/05/05 12:29:53;;;;;;;7.50;2.60;;;29.80;15.20;;;;;;5074811;28;20989;-53
2023/05/05 12:32:29;;;;;;;3.00;2.70;;;29.70;14.80;;;;;;5074471;28;20446;-52
2023/05/05 12:34:58;;;;;;;4.83;3.70;;;29.70;15.90;;;;;;5074752;28;20439;-53
2023/05/05 12:37:25;;;;;;;4.77;3.00;;;29.60;15.00;;;;;;5075005;28;20418;-53
2023/05/05 12:39:55;;;;;;;5.60;3.10;;;29.50;14.80;;;;;;5074614;28;20430;-53
2023/05/05 12:42:22;;;;;;;5.00;3.00;;;29.30;15.10;;;;;;5074388;28;20444;-53
2023/05/05 12:44:48;;;;;;;5.90;2.90;;;29.20;15.00;;;;;;5074929;28;20399;-53
2023/05/05 12:47:28;;;;;;;6.23;3.30;;;29.10;15.10;;;;;;5074563;28;20962;-53
2023/05/05 12:49:54;;;;;;;3.70;2.53;;;29.00;14.70;;;;;;5074758;28;20427;-53
2023/05/05 12:52:20;;;;;;;4.50;3.17;;;28.90;14.90;;;;;;5074511;28;20414;-53
2023/05/05 12:54:58;;;;;;;4.97;2.97;;;28.90;15.10;;;;;;5074524;28;20576;-53